.
WxDataArchive / Data Records for 2014-08-27
2014-08-26 August 2014 2014-08-28

Data Records for Wednesday, 27 August 2014

Time	Temp	Chill	HIndex	Humid	Dewpt	 Wind 	HiWind	WindDir	Rain 	Barom
-----	----	-----	------	-----	-----	------	------	-------	-----	-----
00:00	70.3	70.3	70.3	91	67.5	0	0	---	0.00	30.027 
00:05	70.3	70.3	70.3	92	67.9	0	0	---	0.00	30.027 
00:10	70.3	70.3	70.3	92	67.9	0	0	---	0.00	30.027 
00:15	70.1	70.1	70.1	92	67.7	0	0	---	0.00	30.033 
00:20	70.1	70.1	70.1	92	67.7	0	0	---	0.00	30.033 
00:25	70.1	70.1	70.1	92	67.7	0	0	---	0.00	30.033 
00:30	70.1	70.1	70.1	92	67.7	0	0	---	0.00	30.035 
00:35	69.9	69.9	69.9	92	67.5	0	0	---	0.00	30.035 
00:40	69.9	69.9	69.9	92	67.5	0	0	---	0.00	30.035 
00:45	69.9	69.9	69.9	92	67.5	0	0	---	0.00	30.033 
00:50	69.8	69.8	69.8	92	67.4	0	0	---	0.00	30.033 
00:55	69.8	69.8	69.8	92	67.4	0	0	---	0.00	30.033 
01:00	69.8	69.8	69.8	93	67.7	0	0	---	0.00	30.034 
01:05	69.9	69.9	69.9	93	67.8	0	0	---	0.00	30.034 
01:10	69.9	69.9	69.9	93	67.8	0	0	---	0.00	30.034 
01:15	69.8	69.8	69.8	93	67.7	0	0	---	0.00	30.034 
01:20	69.8	69.8	69.8	93	67.7	0	0	---	0.00	30.034 
01:25	69.8	69.8	69.8	93	67.7	0	0	---	0.00	30.034 
01:30	69.8	69.8	69.8	93	67.7	0	0	---	0.00	30.037 
01:35	69.8	69.8	69.8	93	67.7	0	0	---	0.00	30.037 
01:40	69.8	69.8	69.8	93	67.7	0	0	---	0.00	30.037 
01:45	69.9	69.9	69.9	93	67.8	0	0	---	0.00	30.038 
01:50	69.9	69.9	69.9	93	67.8	0	0	---	0.00	30.038 
01:55	70.1	70.1	70.1	93	68.0	0	0	---	0.00	30.038 
02:00	70.1	70.1	70.1	93	68.0	0	0	---	0.00	30.036 
02:05	70.1	70.1	70.1	93	68.0	0	0	---	0.00	30.036 
02:10	70.1	70.1	70.1	93	68.0	0	0	---	0.00	30.036 
02:15	70.3	70.3	70.3	93	68.2	0	0	---	0.00	30.040 
02:20	70.3	70.3	70.3	93	68.2	0	0	---	0.00	30.040 
02:25	70.4	70.4	70.4	93	68.3	0	0	---	0.00	30.040 
02:30	70.6	70.6	70.6	93	68.5	0	0	---	0.00	30.035 
02:35	70.6	70.6	70.6	93	68.5	0	0	---	0.00	30.035 
02:40	70.4	70.4	70.4	93	68.3	0	0	---	0.00	30.035 
02:45	70.4	70.4	70.4	93	68.3	0	0	---	0.00	30.037 
02:50	70.4	70.4	70.4	92	68.0	0	0	---	0.00	30.037 
02:55	70.4	70.4	70.4	92	68.0	0	0	---	0.00	30.037 
03:00	70.4	70.4	70.4	92	68.0	0	0	---	0.00	30.037 
03:05	70.3	70.3	70.3	92	67.9	0	0	---	0.00	30.037 
03:10	70.3	70.3	70.3	92	67.9	0	0	---	0.00	30.037 
03:15	70.3	70.3	70.3	92	67.9	0	0	---	0.00	30.041 
03:20	70.1	70.1	70.1	92	67.7	0	0	---	0.00	30.041 
03:25	70.1	70.1	70.1	92	67.7	0	0	---	0.00	30.041 
03:30	69.9	69.9	69.9	92	67.5	0	0	---	0.00	30.039 
03:35	69.9	69.9	69.9	92	67.5	0	0	---	0.00	30.039 
03:40	69.8	69.8	69.8	92	67.4	0	0	---	0.00	30.039 
03:45	69.6	69.6	69.6	92	67.2	0	0	---	0.00	30.036 
03:50	69.6	69.6	69.6	92	67.2	0	0	---	0.00	30.036 
03:55	69.4	69.4	69.4	92	67.0	0	0	---	0.00	30.036 
04:00	69.4	69.4	69.4	92	67.0	0	0	---	0.00	30.037 
04:05	69.3	69.3	69.3	92	66.9	0	0	---	0.00	30.037 
04:10	69.3	69.3	69.3	92	66.9	0	0	---	0.00	30.037 
04:15	69.1	69.1	69.1	92	66.7	0	0	---	0.00	30.045 
04:20	69.1	69.1	69.1	92	66.7	0	0	---	0.00	30.045 
04:25	68.9	68.9	68.9	93	66.8	0	0	---	0.00	30.045 
04:30	69.1	69.1	69.1	93	67.0	0	0	---	0.00	30.045 
04:35	69.4	69.4	69.4	93	67.3	0	2	338	0.00	30.045 
04:40	69.6	69.6	69.6	93	67.5	0	2	338	0.00	30.045 
04:45	69.8	69.8	69.8	93	67.7	0	1	338	0.00	30.043 
04:50	69.8	69.8	69.8	93	67.7	0	1	338	0.00	30.043 
04:55	69.8	69.8	69.8	93	67.7	0	0	---	0.00	30.043 
05:00	69.9	69.9	69.9	93	67.8	0	1	338	0.00	30.042 
05:05	69.9	69.9	69.9	94	68.1	0	0	---	0.00	30.042 
05:10	69.9	69.9	69.9	94	68.1	0	0	---	0.00	30.042 
05:15	69.9	69.9	69.9	94	68.1	0	0	---	0.00	30.042 
05:20	69.9	69.9	69.9	94	68.1	0	0	---	0.00	30.042 
05:25	69.9	69.9	69.9	94	68.1	0	1	338	0.00	30.042 
05:30	69.9	69.9	69.9	94	68.1	0	0	---	0.00	30.045 
05:35	70.1	70.1	70.1	94	68.3	0	0	---	0.00	30.045 
05:40	70.1	70.1	70.1	94	68.3	0	0	---	0.00	30.045 
05:45	70.1	70.1	70.1	94	68.3	0	0	---	0.00	30.047 
05:50	69.9	69.9	69.9	93	67.8	0	0	---	0.00	30.047 
05:55	69.9	69.9	69.9	93	67.8	0	0	---	0.00	30.047 
06:00	69.9	69.9	69.9	93	67.8	0	1	338	0.00	30.051 
06:05	70.1	70.1	70.1	93	68.0	0	0	---	0.00	30.051 
06:10	69.9	69.9	69.9	93	67.8	0	1	338	0.00	30.051 
06:15	69.9	69.9	69.9	93	67.8	0	0	---	0.00	30.046 
06:20	69.9	69.9	69.9	93	67.8	0	1	338	0.00	30.046 
06:25	69.9	69.9	69.9	93	67.8	0	1	338	0.00	30.046 
06:30	69.9	69.9	69.9	93	67.8	0	1	338	0.00	30.047 
06:35	69.9	69.9	69.9	93	67.8	0	1	338	0.00	30.047 
06:40	69.8	69.8	69.8	93	67.7	0	0	---	0.00	30.047 
06:45	69.8	69.8	69.8	92	67.4	0	0	---	0.00	30.051 
06:50	69.6	69.6	69.6	92	67.2	0	0	---	0.00	30.051 
06:55	69.6	69.6	69.6	92	67.2	0	0	---	0.00	30.051 
07:00	69.4	69.4	69.4	92	67.0	0	0	---	0.00	30.057 
07:05	69.4	69.4	69.4	93	67.3	0	0	---	0.00	30.057 
07:10	69.4	69.4	69.4	93	67.3	0	0	---	0.00	30.057 
07:15	69.4	69.4	69.4	93	67.3	0	0	---	0.00	30.060 
07:20	69.4	69.4	69.4	93	67.3	0	0	---	0.00	30.060 
07:25	69.4	69.4	69.4	93	67.3	0	0	---	0.00	30.060 
07:30	69.4	69.4	69.4	93	67.3	0	0	---	0.00	30.067 
07:35	69.4	69.4	69.4	93	67.3	0	0	---	0.00	30.067 
07:40	69.4	69.4	69.4	93	67.3	0	0	---	0.00	30.067 
07:45	69.6	69.6	69.6	93	67.5	0	0	---	0.00	30.067 
07:50	69.6	69.6	69.6	93	67.5	0	1	338	0.00	30.067 
07:55	69.6	69.6	69.6	93	67.5	0	0	---	0.00	30.067 
08:00	69.6	69.6	69.6	93	67.5	0	0	---	0.00	30.059 
08:05	69.8	69.8	69.8	93	67.7	0	0	---	0.00	30.059 
08:10	69.8	69.8	69.8	93	67.7	0	0	---	0.00	30.059 
08:15	69.8	69.8	69.8	92	67.4	0	0	---	0.00	30.067 
08:20	69.8	69.8	69.8	92	67.4	0	0	---	0.00	30.067 
08:25	69.8	69.8	69.8	92	67.4	0	1	338	0.00	30.067 
08:30	69.6	69.6	69.6	92	67.2	0	1	338	0.00	30.074 
08:35	69.6	69.6	69.6	92	67.2	0	1	338	0.00	30.074 
08:40	69.6	69.6	69.6	92	67.2	0	1	338	0.00	30.074 
08:45	69.6	69.6	69.6	92	67.2	0	0	---	0.01	30.071 
08:50	69.6	69.6	69.6	92	67.2	0	0	---	0.00	30.071 
08:55	69.6	69.6	69.6	92	67.2	0	0	---	0.00	30.071 
09:00	69.3	69.3	69.3	91	66.6	0	1	338	0.00	30.079 
09:05	69.1	69.1	69.1	92	66.7	0	0	---	0.00	30.079 
09:10	68.8	68.8	68.8	91	66.1	0	1	338	0.00	30.079 
09:15	68.6	68.6	68.6	91	65.9	0	0	---	0.00	30.081 
09:20	68.9	68.9	68.9	91	66.2	0	1	338	0.00	30.081 
09:25	69.4	69.4	69.4	91	66.7	0	1	338	0.00	30.081 
09:30	69.6	69.6	69.6	91	66.8	0	1	338	0.00	30.076 
09:35	69.6	69.6	69.6	89	66.2	0	1	338	0.00	30.076 
09:40	69.8	69.8	69.8	88	66.1	0	1	338	0.00	30.076 
09:45	69.9	69.9	69.9	86	65.5	0	2	338	0.00	30.075 
09:50	70.3	70.3	70.3	85	65.6	0	2	135	0.00	30.075 
09:55	70.6	70.6	70.6	84	65.5	0	1	135	0.00	30.075 
10:00	70.8	70.8	70.8	83	65.4	0	0	---	0.00	30.069 
10:05	71.1	71.1	71.1	82	65.3	0	1	135	0.00	30.069 
10:10	71.5	71.5	71.5	81	65.4	0	2	135	0.00	30.069 
10:15	72.0	72.0	72.0	81	65.8	0	2	135	0.00	30.080 
10:20	72.3	72.3	72.3	81	66.1	0	2	135	0.00	30.080 
10:25	72.5	72.5	72.5	79	65.6	0	2	135	0.00	30.080 
10:30	73.0	73.0	73.0	80	66.5	0	2	135	0.00	30.083 
10:35	73.5	73.5	73.5	77	65.8	1	3	135	0.00	30.083 
10:40	73.7	73.7	73.7	79	66.8	1	2	135	0.00	30.083 
10:45	73.7	73.7	73.7	77	66.0	1	3	135	0.00	30.087 
10:50	73.9	73.9	73.9	77	66.2	0	2	135	0.00	30.087 
10:55	74.0	74.0	74.0	74	65.2	0	1	135	0.00	30.087 
11:00	74.6	74.6	74.6	74	65.7	0	1	135	0.00	30.078 
11:05	75.1	75.1	76.6	72	65.4	0	1	135	0.00	30.078 
11:10	75.4	75.4	77.3	67	63.7	1	3	135	0.00	30.078 
11:15	75.3	75.3	77.2	67	63.6	1	3	0	0.00	30.088 
11:20	75.3	75.3	77.2	66	63.1	1	3	0	0.00	30.088 
11:25	75.6	75.6	77.2	70	65.1	1	3	0	0.00	30.088 
11:30	76.3	76.3	77.9	72	66.6	0	2	0	0.00	30.078 
11:35	76.7	76.7	78.4	70	66.2	1	3	22	0.00	30.078 
11:40	77.4	77.4	79.2	68	66.0	1	4	112	0.00	30.078 
11:45	77.7	77.7	79.6	68	66.3	1	3	112	0.00	30.072 
11:50	77.9	77.9	79.7	65	65.2	0	3	112	0.00	30.072 
11:55	78.3	78.3	80.1	63	64.6	0	2	112	0.00	30.072 
12:00	78.6	78.6	80.4	63	64.9	0	2	112	0.00	30.067 
12:05	78.5	78.5	80.2	61	63.9	0	3	90	0.00	30.067 
12:10	78.1	78.1	79.7	59	62.6	1	2	90	0.00	30.067 
12:15	78.1	78.1	79.7	59	62.6	1	4	90	0.00	30.073 
12:20	78.1	78.1	79.7	58	62.1	1	3	292	0.00	30.073 
12:25	78.3	78.3	79.9	59	62.8	1	2	292	0.00	30.073 
12:30	78.8	78.8	80.6	62	64.7	0	1	292	0.00	30.069 
12:35	79.2	79.2	80.7	58	63.1	1	3	292	0.00	30.069 
12:40	79.9	79.9	81.4	57	63.3	1	3	292	0.00	30.069 
12:45	80.5	80.5	82.2	58	64.3	1	3	22	0.00	30.058 
12:50	80.5	80.5	82.2	58	64.3	1	3	22	0.00	30.058 
12:55	80.3	80.3	81.5	54	62.1	0	3	45	0.00	30.058 
13:00	80.3	80.3	81.5	54	62.1	0	1	45	0.00	30.057 
13:05	80.3	80.3	81.4	53	61.6	0	1	45	0.00	30.057 
13:10	80.9	80.9	82.1	54	62.7	0	2	45	0.00	30.057 
13:15	81.2	81.2	82.1	51	61.3	1	3	45	0.00	30.055 
13:20	81.2	81.2	82.2	52	61.9	1	3	22	0.00	30.055 
13:25	81.2	81.2	81.9	50	60.8	1	4	68	0.00	30.055 
13:30	81.4	81.4	82.0	49	60.4	0	2	68	0.00	30.050 
13:35	81.1	81.1	81.8	50	60.7	1	3	45	0.00	30.050 
13:40	81.1	81.1	81.7	49	60.1	0	2	45	0.00	30.050 
13:45	81.2	81.2	81.9	50	60.8	0	2	45	0.00	30.052 
13:50	82.0	82.0	83.4	54	63.7	0	1	45	0.00	30.052 
13:55	82.8	82.8	84.0	52	63.3	0	2	45	0.00	30.052 
14:00	82.8	82.8	83.5	49	61.7	1	4	22	0.00	30.049 
14:05	82.6	82.6	83.6	51	62.6	0	2	22	0.00	30.049 
14:10	82.6	82.6	83.3	49	61.5	0	2	22	0.00	30.049 
14:15	82.6	82.6	82.8	46	59.7	1	3	22	0.00	30.050 
14:20	83.0	83.0	84.1	51	63.0	0	2	22	0.00	30.050 
14:25	82.6	82.6	82.8	46	59.7	1	3	22	0.00	30.050 
14:30	82.6	82.6	83.1	48	60.9	0	1	22	0.00	30.049 
14:35	82.6	82.6	82.8	46	59.7	1	3	22	0.00	30.049 
14:40	83.0	83.0	82.9	44	58.8	0	3	22	0.00	30.049 
14:45	83.2	83.2	82.4	39	55.6	1	3	22	0.00	30.043 
14:50	83.4	83.4	82.9	41	57.2	0	2	22	0.00	30.043 
14:55	83.8	83.8	82.7	37	54.7	0	1	22	0.00	30.043 
15:00	84.0	84.0	83.6	42	58.4	0	2	22	0.00	30.038 
15:05	83.4	83.4	82.9	41	57.2	1	3	22	0.00	30.038 
15:10	83.2	83.2	83.0	43	58.3	1	3	22	0.00	30.038 
15:15	83.4	83.4	83.2	43	58.5	0	2	338	0.00	30.033 
15:20	83.8	83.8	83.6	43	58.9	1	3	338	0.00	30.033 
15:25	83.8	83.8	82.7	37	54.7	1	3	338	0.00	30.033 
15:30	84.0	84.0	83.4	41	57.7	0	1	315	0.00	30.033 
15:35	84.1	84.1	83.6	41	57.8	0	2	315	0.00	30.033 
15:40	84.0	84.0	83.4	41	57.7	0	2	315	0.00	30.033 
15:45	84.0	84.0	83.0	38	55.6	1	4	315	0.00	30.027 
15:50	83.8	83.8	82.9	39	56.2	1	3	315	0.00	30.027 
15:55	83.6	83.6	82.8	39	56.0	0	2	315	0.00	30.027 
16:00	83.6	83.6	82.8	39	56.0	1	3	315	0.00	30.025 
16:05	83.8	83.8	82.7	37	54.7	0	2	315	0.00	30.025 
16:10	84.0	84.0	83.1	39	56.3	0	1	315	0.00	30.025 
16:15	84.0	84.0	83.0	38	55.6	0	2	315	0.00	30.023 
16:20	84.0	84.0	83.4	41	57.7	0	1	315	0.00	30.023 
16:25	84.0	84.0	83.0	38	55.6	0	2	315	0.00	30.023 
16:30	84.0	84.0	83.1	39	56.3	1	2	315	0.00	30.022 
16:35	84.0	84.0	83.1	39	56.3	0	2	315	0.00	30.022 
16:40	83.8	83.8	82.8	38	55.5	0	3	315	0.00	30.022 
16:45	83.4	83.4	83.0	42	57.9	0	1	315	0.00	30.024 
16:50	83.4	83.4	82.7	40	56.5	0	1	315	0.00	30.024 
16:55	83.4	83.4	82.7	40	56.5	1	3	315	0.00	30.024 
17:00	83.4	83.4	82.6	39	55.8	1	3	315	0.00	30.022 
17:05	83.2	83.2	82.1	37	54.2	1	3	315	0.00	30.022 
17:10	83.2	83.2	82.0	36	53.4	1	4	315	0.00	30.022 
17:15	83.2	83.2	82.3	38	54.9	1	3	315	0.00	30.020 
17:20	83.4	83.4	82.2	36	53.6	1	3	315	0.00	30.020 
17:25	83.2	83.2	81.9	35	52.7	1	3	315	0.00	30.020 
17:30	83.4	83.4	81.8	33	51.2	2	4	315	0.00	30.023 
17:35	83.2	83.2	81.8	34	51.9	2	3	315	0.00	30.023 
17:40	83.2	83.2	81.9	35	52.7	0	2	315	0.00	30.023 
17:45	83.4	83.4	81.8	33	51.2	1	2	315	0.00	30.025 
17:50	83.8	83.8	82.1	32	50.8	1	5	315	0.00	30.025 
17:55	83.6	83.6	81.8	31	49.7	2	4	315	0.00	30.025 
18:00	83.4	83.4	81.8	33	51.2	0	2	315	0.00	30.024 
18:05	82.8	82.8	81.7	36	53.1	1	2	315	0.00	30.024 
18:10	82.6	82.6	81.5	36	52.9	1	3	315	0.00	30.024 
18:15	82.0	82.0	81.0	36	52.4	1	4	315	0.00	30.026 
18:20	81.8	81.8	81.0	37	53.0	1	3	315	0.00	30.026 
18:25	81.6	81.6	80.8	37	52.8	0	3	315	0.00	30.026 
18:30	81.4	81.4	81.0	40	54.7	0	1	315	0.00	30.023 
18:35	81.2	81.2	80.8	40	54.6	0	1	315	0.00	30.023 
18:40	81.1	81.1	80.8	41	55.1	0	1	315	0.00	30.023 
18:45	80.9	80.9	81.0	44	56.9	0	2	315	0.00	30.020 
18:50	80.7	80.7	81.0	46	58.0	1	4	315	0.00	30.020 
18:55	80.7	80.7	81.2	48	59.2	1	3	315	0.00	30.020 
19:00	80.7	80.7	81.4	50	60.3	1	4	315	0.00	30.019 
19:05	80.5	80.5	81.4	51	60.7	1	3	315	0.00	30.019 
19:10	79.9	79.9	80.7	50	59.6	1	5	315	0.00	30.019 
19:15	79.6	79.6	80.5	50	59.3	2	4	315	0.00	30.015 
19:20	79.4	79.4	80.4	51	59.7	1	4	315	0.00	30.015 
19:25	78.8	78.8	79.9	52	59.7	1	4	315	0.00	30.015 
19:30	78.6	78.6	79.8	53	60.0	1	3	315	0.00	30.020 
19:35	78.1	78.1	79.5	53	59.6	1	3	315	0.00	30.020 
19:40	77.7	77.7	79.2	53	59.2	1	4	315	0.00	30.020 
19:45	77.4	77.4	78.9	53	58.9	1	3	315	0.00	30.019 
19:50	77.2	77.2	78.8	54	59.2	1	4	315	0.00	30.019 
19:55	76.8	76.8	78.6	54	58.9	1	2	315	0.00	30.019 
20:00	76.5	76.5	78.4	55	59.1	1	3	315	0.00	30.026 
20:05	76.1	76.1	78.1	56	59.2	1	3	315	0.00	30.026 
20:10	75.8	75.8	77.9	56	59.0	0	2	315	0.00	30.026 
20:15	75.6	75.6	77.8	57	59.3	0	1	315	0.00	30.030 
20:20	75.3	75.3	77.6	58	59.5	0	1	315	0.00	30.030 
20:25	74.9	74.9	74.9	59	59.6	0	3	315	0.00	30.030 
20:30	74.7	74.7	74.7	59	59.4	0	2	315	0.00	30.032 
20:35	74.6	74.6	74.6	59	59.3	0	2	315	0.00	30.032 
20:40	74.4	74.4	74.4	60	59.6	0	2	315	0.00	30.032 
20:45	74.2	74.2	74.2	60	59.4	0	2	315	0.00	30.036 
20:50	74.0	74.0	74.0	61	59.7	0	1	315	0.00	30.036 
20:55	73.7	73.7	73.7	62	59.9	0	1	315	0.00	30.036 
21:00	73.5	73.5	73.5	62	59.7	0	1	315	0.00	30.037 
21:05	73.3	73.3	73.3	63	59.9	0	1	315	0.00	30.037 
21:10	73.2	73.2	73.2	63	59.8	0	0	---	0.00	30.037 
21:15	73.0	73.0	73.0	64	60.1	0	0	---	0.00	30.042 
21:20	72.7	72.7	72.7	65	60.2	0	0	---	0.00	30.042 
21:25	72.5	72.5	72.5	65	60.0	0	0	---	0.00	30.042 
21:30	72.3	72.3	72.3	66	60.3	0	0	---	0.00	30.050 
21:35	72.0	72.0	72.0	67	60.4	0	0	---	0.00	30.050 
21:40	71.8	71.8	71.8	67	60.2	0	2	315	0.00	30.050 
21:45	71.6	71.6	71.6	67	60.0	0	2	315	0.00	30.060 
21:50	71.5	71.5	71.5	68	60.4	0	0	---	0.00	30.060 
21:55	71.3	71.3	71.3	68	60.2	0	1	315	0.00	30.060 
22:00	71.1	71.1	71.1	68	60.0	0	3	315	0.00	30.061 
22:05	70.9	70.9	70.9	68	59.8	0	1	315	0.00	30.061 
22:10	70.8	70.8	70.8	68	59.7	0	0	---	0.00	30.061 
22:15	70.8	70.8	70.8	69	60.1	0	0	---	0.00	30.062 
22:20	70.4	70.4	70.4	69	59.7	0	0	---	0.00	30.062 
22:25	70.3	70.3	70.3	69	59.6	0	0	---	0.00	30.062 
22:30	70.1	70.1	70.1	70	59.8	0	0	---	0.00	30.068 
22:35	69.9	69.9	69.9	70	59.7	0	0	---	0.00	30.068 
22:40	69.8	69.8	69.8	71	60.0	0	0	---	0.00	30.068 
22:45	69.6	69.6	69.6	72	60.2	0	0	---	0.00	30.064 
22:50	69.3	69.3	69.3	72	59.9	0	0	---	0.00	30.064 
22:55	69.1	69.1	69.1	72	59.7	0	0	---	0.00	30.064 
23:00	68.9	68.9	68.9	73	59.9	0	0	---	0.00	30.062 
23:05	68.8	68.8	68.8	74	60.2	0	1	315	0.00	30.062 
23:10	68.6	68.6	68.6	74	60.0	0	1	315	0.00	30.062 
23:15	68.4	68.4	68.4	74	59.8	0	0	---	0.00	30.061 
23:20	68.4	68.4	68.4	75	60.2	0	0	---	0.00	30.061 
23:25	68.3	68.3	68.3	75	60.1	0	1	315	0.00	30.061 
23:30	68.1	68.1	68.1	75	59.9	0	0	---	0.00	30.060 
23:35	67.9	67.9	67.9	76	60.0	0	0	---	0.00	30.060 
23:40	67.8	67.8	67.8	76	59.9	0	0	---	0.00	30.060 
23:45	67.6	67.6	67.6	77	60.1	0	1	315	0.00	30.060 
23:50	67.6	67.6	67.6	77	60.1	0	1	315	0.00	30.060 
23:55	67.4	67.4	67.4	77	59.9	0	0	---	0.00	30.060 

CoCoRaHS
IN-AL-39
A2 Web Hosting
Creative Commons License
GoDaddy
search engine by freefind advanced

loaded 2018-11-15 18:45:33 • last modified 2010-11-18 10:43:29
Privacy PolicyDisclaimer
• wx.awcolley.com is powered by PmWiki v.2002016 •
• all content (unless otherwise noted) © 2018 A W Colley